sensor_id;sensor_type;location;lat;lon;timestamp;P1;durP1;ratioP1;P2;durP2;ratioP2
2866;SDS011;1441;48.886;8.728;2022-12-18T00:01:15;19.77;;;10.70;;
2866;SDS011;1441;48.886;8.728;2022-12-18T00:03:45;22.50;;;10.27;;
2866;SDS011;1441;48.886;8.728;2022-12-18T00:06:11;23.23;;;11.30;;
2866;SDS011;1441;48.886;8.728;2022-12-18T00:08:38;18.80;;;10.53;;
2866;SDS011;1441;48.886;8.728;2022-12-18T00:11:05;17.30;;;9.60;;
2866;SDS011;1441;48.886;8.728;2022-12-18T00:13:36;19.90;;;10.30;;
2866;SDS011;1441;48.886;8.728;2022-12-18T00:16:03;17.80;;;8.50;;
2866;SDS011;1441;48.886;8.728;2022-12-18T00:18:30;18.13;;;10.20;;
2866;SDS011;1441;48.886;8.728;2022-12-18T00:20:58;21.90;;;10.30;;
2866;SDS011;1441;48.886;8.728;2022-12-18T00:23:25;21.00;;;10.07;;
2866;SDS011;1441;48.886;8.728;2022-12-18T00:25:51;20.43;;;10.27;;
2866;SDS011;1441;48.886;8.728;2022-12-18T00:28:16;22.93;;;9.40;;
2866;SDS011;1441;48.886;8.728;2022-12-18T00:30:42;17.30;;;9.67;;
2866;SDS011;1441;48.886;8.728;2022-12-18T00:33:07;19.83;;;10.70;;
2866;SDS011;1441;48.886;8.728;2022-12-18T00:35:33;19.17;;;9.83;;
2866;SDS011;1441;48.886;8.728;2022-12-18T00:37:59;20.47;;;10.37;;
2866;SDS011;1441;48.886;8.728;2022-12-18T00:40:24;21.17;;;10.47;;
2866;SDS011;1441;48.886;8.728;2022-12-18T00:42:50;19.07;;;10.30;;
2866;SDS011;1441;48.886;8.728;2022-12-18T00:45:25;17.17;;;9.67;;
2866;SDS011;1441;48.886;8.728;2022-12-18T00:47:52;17.80;;;9.80;;
2866;SDS011;1441;48.886;8.728;2022-12-18T00:50:19;19.97;;;10.17;;
2866;SDS011;1441;48.886;8.728;2022-12-18T00:52:45;21.43;;;10.20;;
2866;SDS011;1441;48.886;8.728;2022-12-18T00:55:11;18.77;;;10.17;;
2866;SDS011;1441;48.886;8.728;2022-12-18T00:57:37;19.00;;;9.77;;
2866;SDS011;1441;48.886;8.728;2022-12-18T01:00:04;23.00;;;10.80;;
2866;SDS011;1441;48.886;8.728;2022-12-18T01:02:32;21.27;;;10.80;;
2866;SDS011;1441;48.886;8.728;2022-12-18T01:04:58;18.50;;;9.93;;
2866;SDS011;1441;48.886;8.728;2022-12-18T01:07:23;18.03;;;9.80;;
2866;SDS011;1441;48.886;8.728;2022-12-18T01:09:49;19.40;;;8.90;;
2866;SDS011;1441;48.886;8.728;2022-12-18T01:12:14;20.73;;;10.60;;
2866;SDS011;1441;48.886;8.728;2022-12-18T01:14:40;23.60;;;9.90;;
2866;SDS011;1441;48.886;8.728;2022-12-18T01:17:05;19.97;;;9.67;;
2866;SDS011;1441;48.886;8.728;2022-12-18T01:19:31;22.33;;;10.10;;
2866;SDS011;1441;48.886;8.728;2022-12-18T01:21:57;18.93;;;10.30;;
2866;SDS011;1441;48.886;8.728;2022-12-18T01:24:22;18.63;;;9.87;;
2866;SDS011;1441;48.886;8.728;2022-12-18T01:26:48;22.37;;;10.47;;
2866;SDS011;1441;48.886;8.728;2022-12-18T01:29:14;18.47;;;9.50;;
2866;SDS011;1441;48.886;8.728;2022-12-18T01:31:39;20.40;;;10.27;;
2866;SDS011;1441;48.886;8.728;2022-12-18T01:34:05;17.90;;;9.80;;
2866;SDS011;1441;48.886;8.728;2022-12-18T01:36:32;18.73;;;9.47;;
2866;SDS011;1441;48.886;8.728;2022-12-18T01:38:59;19.40;;;9.70;;
2866;SDS011;1441;48.886;8.728;2022-12-18T01:41:27;22.80;;;10.60;;
2866;SDS011;1441;48.886;8.728;2022-12-18T01:49:55;19.63;;;9.10;;
2866;SDS011;1441;48.886;8.728;2022-12-18T01:52:22;19.57;;;10.33;;
2866;SDS011;1441;48.886;8.728;2022-12-18T01:54:53;19.03;;;9.50;;
2866;SDS011;1441;48.886;8.728;2022-12-18T01:57:19;17.93;;;10.13;;
2866;SDS011;1441;48.886;8.728;2022-12-18T01:59:45;19.80;;;9.73;;
2866;SDS011;1441;48.886;8.728;2022-12-18T02:02:15;20.93;;;9.43;;
2866;SDS011;1441;48.886;8.728;2022-12-18T02:04:42;21.97;;;10.23;;
2866;SDS011;1441;48.886;8.728;2022-12-18T02:07:16;23.27;;;10.10;;
2866;SDS011;1441;48.886;8.728;2022-12-18T02:10:13;17.13;;;8.50;;
2866;SDS011;1441;48.886;8.728;2022-12-18T02:17:47;20.33;;;9.53;;
2866;SDS011;1441;48.886;8.728;2022-12-18T02:20:22;17.07;;;9.20;;
2866;SDS011;1441;48.886;8.728;2022-12-18T02:23:06;19.10;;;10.77;;
2866;SDS011;1441;48.886;8.728;2022-12-18T02:28:39;18.93;;;10.00;;
2866;SDS011;1441;48.886;8.728;2022-12-18T02:31:10;19.37;;;10.07;;
2866;SDS011;1441;48.886;8.728;2022-12-18T02:33:40;19.30;;;9.80;;
2866;SDS011;1441;48.886;8.728;2022-12-18T02:36:08;23.13;;;10.70;;
2866;SDS011;1441;48.886;8.728;2022-12-18T02:38:35;14.53;;;9.80;;
2866;SDS011;1441;48.886;8.728;2022-12-18T02:41:02;19.30;;;11.10;;
2866;SDS011;1441;48.886;8.728;2022-12-18T02:43:29;20.47;;;9.20;;
2866;SDS011;1441;48.886;8.728;2022-12-18T02:45:58;20.87;;;9.83;;
2866;SDS011;1441;48.886;8.728;2022-12-18T02:48:29;20.90;;;10.70;;
2866;SDS011;1441;48.886;8.728;2022-12-18T02:53:42;17.90;;;9.27;;
2866;SDS011;1441;48.886;8.728;2022-12-18T02:56:15;19.80;;;9.13;;
2866;SDS011;1441;48.886;8.728;2022-12-18T02:58:55;23.63;;;10.80;;
2866;SDS011;1441;48.886;8.728;2022-12-18T03:01:38;17.13;;;9.23;;
2866;SDS011;1441;48.886;8.728;2022-12-18T03:05:09;19.20;;;10.23;;
2866;SDS011;1441;48.886;8.728;2022-12-18T03:07:40;17.63;;;9.47;;
2866;SDS011;1441;48.886;8.728;2022-12-18T03:10:19;20.20;;;10.97;;
2866;SDS011;1441;48.886;8.728;2022-12-18T03:12:54;16.87;;;9.17;;
2866;SDS011;1441;48.886;8.728;2022-12-18T03:15:34;21.63;;;10.30;;
2866;SDS011;1441;48.886;8.728;2022-12-18T03:18:06;18.37;;;9.17;;
2866;SDS011;1441;48.886;8.728;2022-12-18T03:20:37;19.43;;;10.03;;
2866;SDS011;1441;48.886;8.728;2022-12-18T03:23:09;20.03;;;9.20;;
2866;SDS011;1441;48.886;8.728;2022-12-18T03:25:43;19.73;;;9.20;;
2866;SDS011;1441;48.886;8.728;2022-12-18T03:28:12;17.63;;;9.03;;
2866;SDS011;1441;48.886;8.728;2022-12-18T03:30:41;18.53;;;9.97;;
2866;SDS011;1441;48.886;8.728;2022-12-18T03:33:09;21.87;;;10.03;;
2866;SDS011;1441;48.886;8.728;2022-12-18T03:35:40;19.53;;;9.50;;
2866;SDS011;1441;48.886;8.728;2022-12-18T03:38:07;22.27;;;10.73;;
2866;SDS011;1441;48.886;8.728;2022-12-18T03:45:47;23.87;;;9.97;;
2866;SDS011;1441;48.886;8.728;2022-12-18T03:53:59;18.20;;;10.63;;
2866;SDS011;1441;48.886;8.728;2022-12-18T03:56:28;20.80;;;10.77;;
2866;SDS011;1441;48.886;8.728;2022-12-18T03:58:57;20.40;;;10.20;;
2866;SDS011;1441;48.886;8.728;2022-12-18T04:01:25;23.03;;;10.50;;
2866;SDS011;1441;48.886;8.728;2022-12-18T04:03:57;19.50;;;11.03;;
2866;SDS011;1441;48.886;8.728;2022-12-18T04:06:25;20.03;;;10.23;;
2866;SDS011;1441;48.886;8.728;2022-12-18T04:08:52;20.10;;;10.00;;
2866;SDS011;1441;48.886;8.728;2022-12-18T04:11:18;18.00;;;9.70;;
2866;SDS011;1441;48.886;8.728;2022-12-18T04:13:44;19.10;;;9.60;;
2866;SDS011;1441;48.886;8.728;2022-12-18T04:16:10;19.63;;;9.20;;
2866;SDS011;1441;48.886;8.728;2022-12-18T04:18:35;23.30;;;10.73;;
2866;SDS011;1441;48.886;8.728;2022-12-18T04:21:01;22.30;;;10.83;;
2866;SDS011;1441;48.886;8.728;2022-12-18T04:23:27;27.27;;;10.80;;
2866;SDS011;1441;48.886;8.728;2022-12-18T04:25:53;19.10;;;9.80;;
2866;SDS011;1441;48.886;8.728;2022-12-18T04:28:19;17.43;;;9.90;;
2866;SDS011;1441;48.886;8.728;2022-12-18T04:30:45;19.70;;;10.70;;
2866;SDS011;1441;48.886;8.728;2022-12-18T04:33:11;19.73;;;9.47;;
2866;SDS011;1441;48.886;8.728;2022-12-18T04:35:38;18.97;;;9.93;;
2866;SDS011;1441;48.886;8.728;2022-12-18T04:38:05;22.13;;;9.80;;
2866;SDS011;1441;48.886;8.728;2022-12-18T04:40:33;18.40;;;9.90;;
2866;SDS011;1441;48.886;8.728;2022-12-18T04:42:59;18.17;;;9.20;;
2866;SDS011;1441;48.886;8.728;2022-12-18T04:45:24;21.60;;;10.13;;
2866;SDS011;1441;48.886;8.728;2022-12-18T04:47:50;15.00;;;9.13;;
2866;SDS011;1441;48.886;8.728;2022-12-18T04:50:15;18.30;;;9.10;;
2866;SDS011;1441;48.886;8.728;2022-12-18T04:52:41;20.53;;;9.70;;
2866;SDS011;1441;48.886;8.728;2022-12-18T04:55:06;19.00;;;8.63;;
2866;SDS011;1441;48.886;8.728;2022-12-18T04:57:32;18.37;;;10.17;;
2866;SDS011;1441;48.886;8.728;2022-12-18T04:59:58;17.13;;;8.60;;
2866;SDS011;1441;48.886;8.728;2022-12-18T05:02:23;17.27;;;9.00;;
2866;SDS011;1441;48.886;8.728;2022-12-18T05:04:49;19.10;;;9.70;;
2866;SDS011;1441;48.886;8.728;2022-12-18T05:07:14;15.70;;;8.70;;
2866;SDS011;1441;48.886;8.728;2022-12-18T05:09:40;25.87;;;9.57;;
2866;SDS011;1441;48.886;8.728;2022-12-18T05:12:05;20.83;;;9.60;;
2866;SDS011;1441;48.886;8.728;2022-12-18T05:14:31;23.37;;;9.67;;
2866;SDS011;1441;48.886;8.728;2022-12-18T05:16:57;16.70;;;8.00;;
2866;SDS011;1441;48.886;8.728;2022-12-18T05:19:22;16.10;;;8.50;;
2866;SDS011;1441;48.886;8.728;2022-12-18T05:21:48;16.03;;;8.30;;
2866;SDS011;1441;48.886;8.728;2022-12-18T05:24:13;20.17;;;8.30;;
2866;SDS011;1441;48.886;8.728;2022-12-18T05:26:39;15.40;;;9.40;;
2866;SDS011;1441;48.886;8.728;2022-12-18T05:29:04;17.83;;;8.73;;
2866;SDS011;1441;48.886;8.728;2022-12-18T05:31:30;18.47;;;9.43;;
2866;SDS011;1441;48.886;8.728;2022-12-18T05:33:56;18.23;;;9.00;;
2866;SDS011;1441;48.886;8.728;2022-12-18T05:36:22;14.40;;;8.43;;
2866;SDS011;1441;48.886;8.728;2022-12-18T05:38:48;14.97;;;7.80;;
2866;SDS011;1441;48.886;8.728;2022-12-18T05:41:13;23.27;;;9.00;;
2866;SDS011;1441;48.886;8.728;2022-12-18T05:43:39;16.30;;;7.67;;
2866;SDS011;1441;48.886;8.728;2022-12-18T05:46:06;12.83;;;7.37;;
2866;SDS011;1441;48.886;8.728;2022-12-18T05:48:33;15.10;;;8.60;;
2866;SDS011;1441;48.886;8.728;2022-12-18T05:51:06;14.40;;;8.10;;
2866;SDS011;1441;48.886;8.728;2022-12-18T05:53:33;16.40;;;8.40;;
2866;SDS011;1441;48.886;8.728;2022-12-18T05:56:00;14.13;;;8.50;;
2866;SDS011;1441;48.886;8.728;2022-12-18T05:58:27;18.33;;;7.83;;
2866;SDS011;1441;48.886;8.728;2022-12-18T06:00:53;15.30;;;7.63;;
2866;SDS011;1441;48.886;8.728;2022-12-18T06:03:19;12.70;;;8.10;;
2866;SDS011;1441;48.886;8.728;2022-12-18T06:05:45;13.43;;;7.53;;
2866;SDS011;1441;48.886;8.728;2022-12-18T06:08:10;14.90;;;7.10;;
2866;SDS011;1441;48.886;8.728;2022-12-18T06:10:38;18.30;;;9.03;;
2866;SDS011;1441;48.886;8.728;2022-12-18T06:13:05;16.33;;;8.40;;
2866;SDS011;1441;48.886;8.728;2022-12-18T06:15:31;16.10;;;7.77;;
2866;SDS011;1441;48.886;8.728;2022-12-18T06:17:56;13.40;;;7.37;;
2866;SDS011;1441;48.886;8.728;2022-12-18T06:20:22;17.40;;;9.20;;
2866;SDS011;1441;48.886;8.728;2022-12-18T06:22:48;18.40;;;7.80;;
2866;SDS011;1441;48.886;8.728;2022-12-18T06:25:14;16.50;;;8.20;;
2866;SDS011;1441;48.886;8.728;2022-12-18T06:27:39;23.70;;;9.43;;
2866;SDS011;1441;48.886;8.728;2022-12-18T06:30:05;15.37;;;7.47;;
2866;SDS011;1441;48.886;8.728;2022-12-18T06:32:31;18.53;;;8.40;;
2866;SDS011;1441;48.886;8.728;2022-12-18T06:34:57;20.27;;;10.13;;
2866;SDS011;1441;48.886;8.728;2022-12-18T06:37:23;21.77;;;9.20;;
2866;SDS011;1441;48.886;8.728;2022-12-18T06:39:50;20.43;;;8.97;;
2866;SDS011;1441;48.886;8.728;2022-12-18T06:42:17;19.13;;;8.67;;
2866;SDS011;1441;48.886;8.728;2022-12-18T06:44:42;21.60;;;8.87;;
2866;SDS011;1441;48.886;8.728;2022-12-18T06:47:08;21.93;;;9.73;;
2866;SDS011;1441;48.886;8.728;2022-12-18T06:49:34;25.87;;;11.17;;
2866;SDS011;1441;48.886;8.728;2022-12-18T06:51:59;24.07;;;9.43;;
2866;SDS011;1441;48.886;8.728;2022-12-18T06:54:25;20.80;;;9.93;;
2866;SDS011;1441;48.886;8.728;2022-12-18T06:56:50;20.97;;;9.20;;
2866;SDS011;1441;48.886;8.728;2022-12-18T06:59:16;20.33;;;9.90;;
2866;SDS011;1441;48.886;8.728;2022-12-18T07:01:41;20.37;;;10.33;;
2866;SDS011;1441;48.886;8.728;2022-12-18T07:04:07;21.37;;;9.33;;
2866;SDS011;1441;48.886;8.728;2022-12-18T07:06:33;23.40;;;9.97;;
2866;SDS011;1441;48.886;8.728;2022-12-18T07:08:58;22.13;;;10.20;;
2866;SDS011;1441;48.886;8.728;2022-12-18T07:11:24;23.60;;;8.77;;
2866;SDS011;1441;48.886;8.728;2022-12-18T07:13:49;32.23;;;11.63;;
2866;SDS011;1441;48.886;8.728;2022-12-18T07:16:16;17.97;;;8.27;;
2866;SDS011;1441;48.886;8.728;2022-12-18T07:18:43;24.77;;;9.87;;
2866;SDS011;1441;48.886;8.728;2022-12-18T07:21:10;21.00;;;10.47;;
2866;SDS011;1441;48.886;8.728;2022-12-18T07:23:38;20.23;;;9.87;;
2866;SDS011;1441;48.886;8.728;2022-12-18T07:26:05;24.23;;;10.70;;
2866;SDS011;1441;48.886;8.728;2022-12-18T07:28:32;23.60;;;10.07;;
2866;SDS011;1441;48.886;8.728;2022-12-18T07:31:02;17.43;;;8.60;;
2866;SDS011;1441;48.886;8.728;2022-12-18T07:33:28;19.97;;;8.87;;
2866;SDS011;1441;48.886;8.728;2022-12-18T07:35:54;24.40;;;11.20;;
2866;SDS011;1441;48.886;8.728;2022-12-18T07:38:20;22.93;;;10.70;;
2866;SDS011;1441;48.886;8.728;2022-12-18T07:40:46;19.00;;;9.00;;
2866;SDS011;1441;48.886;8.728;2022-12-18T07:43:11;21.10;;;9.90;;
2866;SDS011;1441;48.886;8.728;2022-12-18T07:45:37;18.47;;;10.87;;
2866;SDS011;1441;48.886;8.728;2022-12-18T07:48:02;17.70;;;8.77;;
2866;SDS011;1441;48.886;8.728;2022-12-18T07:50:28;24.90;;;10.27;;
2866;SDS011;1441;48.886;8.728;2022-12-18T07:52:53;17.57;;;9.80;;
2866;SDS011;1441;48.886;8.728;2022-12-18T07:55:19;21.43;;;10.00;;
2866;SDS011;1441;48.886;8.728;2022-12-18T07:57:45;20.77;;;10.17;;
2866;SDS011;1441;48.886;8.728;2022-12-18T08:00:10;19.73;;;9.63;;
2866;SDS011;1441;48.886;8.728;2022-12-18T08:02:37;26.53;;;10.80;;
2866;SDS011;1441;48.886;8.728;2022-12-18T08:05:02;25.80;;;12.00;;
2866;SDS011;1441;48.886;8.728;2022-12-18T08:07:28;22.17;;;10.90;;
2866;SDS011;1441;48.886;8.728;2022-12-18T08:09:54;23.50;;;9.83;;
2866;SDS011;1441;48.886;8.728;2022-12-18T08:12:19;25.47;;;11.80;;
2866;SDS011;1441;48.886;8.728;2022-12-18T08:14:45;25.13;;;11.00;;
2866;SDS011;1441;48.886;8.728;2022-12-18T08:17:10;27.23;;;12.50;;
2866;SDS011;1441;48.886;8.728;2022-12-18T08:19:36;24.93;;;11.93;;
2866;SDS011;1441;48.886;8.728;2022-12-18T08:22:02;39.07;;;13.80;;
2866;SDS011;1441;48.886;8.728;2022-12-18T08:24:27;27.20;;;12.90;;
2866;SDS011;1441;48.886;8.728;2022-12-18T08:26:53;21.67;;;11.73;;
2866;SDS011;1441;48.886;8.728;2022-12-18T08:29:18;28.67;;;12.57;;
2866;SDS011;1441;48.886;8.728;2022-12-18T08:31:44;27.37;;;13.30;;
2866;SDS011;1441;48.886;8.728;2022-12-18T08:34:10;26.90;;;13.00;;
2866;SDS011;1441;48.886;8.728;2022-12-18T08:36:36;29.50;;;13.50;;
2866;SDS011;1441;48.886;8.728;2022-12-18T08:39:01;27.83;;;12.83;;
2866;SDS011;1441;48.886;8.728;2022-12-18T08:41:27;27.57;;;14.07;;
2866;SDS011;1441;48.886;8.728;2022-12-18T08:43:53;27.90;;;13.50;;
2866;SDS011;1441;48.886;8.728;2022-12-18T08:46:38;28.73;;;13.70;;
2866;SDS011;1441;48.886;8.728;2022-12-18T08:49:05;29.73;;;14.67;;
2866;SDS011;1441;48.886;8.728;2022-12-18T08:51:32;26.60;;;13.83;;
2866;SDS011;1441;48.886;8.728;2022-12-18T08:53:58;24.23;;;12.83;;
2866;SDS011;1441;48.886;8.728;2022-12-18T08:56:24;31.80;;;13.50;;
2866;SDS011;1441;48.886;8.728;2022-12-18T08:58:53;27.33;;;13.20;;
2866;SDS011;1441;48.886;8.728;2022-12-18T09:01:19;27.73;;;13.07;;
2866;SDS011;1441;48.886;8.728;2022-12-18T09:03:45;29.90;;;13.20;;
2866;SDS011;1441;48.886;8.728;2022-12-18T09:06:13;29.73;;;12.43;;
2866;SDS011;1441;48.886;8.728;2022-12-18T09:08:40;27.63;;;13.33;;
2866;SDS011;1441;48.886;8.728;2022-12-18T09:11:10;32.20;;;14.80;;
2866;SDS011;1441;48.886;8.728;2022-12-18T09:13:44;23.07;;;13.00;;
2866;SDS011;1441;48.886;8.728;2022-12-18T09:16:09;25.17;;;12.53;;
2866;SDS011;1441;48.886;8.728;2022-12-18T09:18:35;28.17;;;13.70;;
2866;SDS011;1441;48.886;8.728;2022-12-18T09:21:07;27.17;;;13.43;;
2866;SDS011;1441;48.886;8.728;2022-12-18T09:23:36;27.10;;;14.67;;
2866;SDS011;1441;48.886;8.728;2022-12-18T09:26:02;31.97;;;13.30;;
2866;SDS011;1441;48.886;8.728;2022-12-18T09:28:28;28.23;;;12.33;;
2866;SDS011;1441;48.886;8.728;2022-12-18T09:30:54;22.70;;;12.30;;
2866;SDS011;1441;48.886;8.728;2022-12-18T09:33:20;26.73;;;13.40;;
2866;SDS011;1441;48.886;8.728;2022-12-18T09:35:46;26.43;;;12.00;;
2866;SDS011;1441;48.886;8.728;2022-12-18T09:38:16;29.00;;;13.53;;
2866;SDS011;1441;48.886;8.728;2022-12-18T09:40:47;25.60;;;11.30;;
2866;SDS011;1441;48.886;8.728;2022-12-18T09:43:18;29.60;;;13.53;;
2866;SDS011;1441;48.886;8.728;2022-12-18T09:45:56;28.30;;;12.50;;
2866;SDS011;1441;48.886;8.728;2022-12-18T09:48:27;32.97;;;13.37;;
2866;SDS011;1441;48.886;8.728;2022-12-18T09:50:57;30.37;;;13.07;;
2866;SDS011;1441;48.886;8.728;2022-12-18T09:53:28;26.57;;;12.03;;
2866;SDS011;1441;48.886;8.728;2022-12-18T09:55:59;28.00;;;14.23;;
2866;SDS011;1441;48.886;8.728;2022-12-18T09:58:28;27.10;;;13.80;;
2866;SDS011;1441;48.886;8.728;2022-12-18T10:00:58;33.47;;;15.70;;
2866;SDS011;1441;48.886;8.728;2022-12-18T10:03:24;33.70;;;15.57;;
2866;SDS011;1441;48.886;8.728;2022-12-18T10:19:40;34.37;;;15.53;;
2866;SDS011;1441;48.886;8.728;2022-12-18T10:22:35;29.73;;;16.70;;
2866;SDS011;1441;48.886;8.728;2022-12-18T10:27:40;30.83;;;14.70;;
2866;SDS011;1441;48.886;8.728;2022-12-18T10:30:13;33.93;;;16.73;;
2866;SDS011;1441;48.886;8.728;2022-12-18T10:32:40;34.17;;;17.20;;
2866;SDS011;1441;48.886;8.728;2022-12-18T10:35:16;30.13;;;16.47;;
2866;SDS011;1441;48.886;8.728;2022-12-18T10:40:25;39.47;;;18.90;;
2866;SDS011;1441;48.886;8.728;2022-12-18T10:48:25;29.10;;;14.30;;
2866;SDS011;1441;48.886;8.728;2022-12-18T10:50:51;34.23;;;15.60;;
2866;SDS011;1441;48.886;8.728;2022-12-18T10:53:19;39.50;;;16.77;;
2866;SDS011;1441;48.886;8.728;2022-12-18T10:55:47;30.37;;;15.80;;
2866;SDS011;1441;48.886;8.728;2022-12-18T11:03:34;31.80;;;16.60;;
2866;SDS011;1441;48.886;8.728;2022-12-18T11:08:38;35.60;;;16.43;;
2866;SDS011;1441;48.886;8.728;2022-12-18T11:11:26;28.13;;;15.10;;
2866;SDS011;1441;48.886;8.728;2022-12-18T11:14:02;32.10;;;16.77;;
2866;SDS011;1441;48.886;8.728;2022-12-18T11:16:33;30.47;;;15.63;;
2866;SDS011;1441;48.886;8.728;2022-12-18T11:21:58;29.37;;;15.60;;
2866;SDS011;1441;48.886;8.728;2022-12-18T11:24:31;28.10;;;16.20;;
2866;SDS011;1441;48.886;8.728;2022-12-18T11:27:00;31.63;;;14.63;;
2866;SDS011;1441;48.886;8.728;2022-12-18T11:29:33;29.10;;;15.80;;
2866;SDS011;1441;48.886;8.728;2022-12-18T11:32:18;34.17;;;14.57;;
2866;SDS011;1441;48.886;8.728;2022-12-18T11:34:52;31.73;;;14.30;;
2866;SDS011;1441;48.886;8.728;2022-12-18T11:37:33;32.27;;;15.33;;
2866;SDS011;1441;48.886;8.728;2022-12-18T11:40:11;29.40;;;15.47;;
2866;SDS011;1441;48.886;8.728;2022-12-18T11:42:44;36.53;;;15.50;;
2866;SDS011;1441;48.886;8.728;2022-12-18T11:45:28;28.10;;;14.20;;
2866;SDS011;1441;48.886;8.728;2022-12-18T11:48:01;30.70;;;14.43;;
2866;SDS011;1441;48.886;8.728;2022-12-18T11:50:54;31.90;;;15.60;;
2866;SDS011;1441;48.886;8.728;2022-12-18T11:53:22;28.43;;;14.17;;
2866;SDS011;1441;48.886;8.728;2022-12-18T11:55:50;39.13;;;17.33;;
2866;SDS011;1441;48.886;8.728;2022-12-18T11:58:52;29.10;;;15.27;;
2866;SDS011;1441;48.886;8.728;2022-12-18T12:01:50;30.57;;;14.90;;
2866;SDS011;1441;48.886;8.728;2022-12-18T12:04:36;30.40;;;15.80;;
2866;SDS011;1441;48.886;8.728;2022-12-18T12:07:29;36.27;;;17.50;;
2866;SDS011;1441;48.886;8.728;2022-12-18T12:15:52;34.00;;;16.20;;
2866;SDS011;1441;48.886;8.728;2022-12-18T12:24:10;32.70;;;15.20;;
2866;SDS011;1441;48.886;8.728;2022-12-18T12:26:55;34.03;;;14.73;;
2866;SDS011;1441;48.886;8.728;2022-12-18T12:32:20;31.50;;;16.30;;
2866;SDS011;1441;48.886;8.728;2022-12-18T12:40:59;31.23;;;16.10;;
2866;SDS011;1441;48.886;8.728;2022-12-18T12:43:35;30.80;;;15.53;;
2866;SDS011;1441;48.886;8.728;2022-12-18T12:46:14;34.33;;;18.03;;
2866;SDS011;1441;48.886;8.728;2022-12-18T12:48:50;32.33;;;15.97;;
2866;SDS011;1441;48.886;8.728;2022-12-18T12:51:34;36.50;;;16.83;;
2866;SDS011;1441;48.886;8.728;2022-12-18T12:54:02;32.70;;;16.93;;
2866;SDS011;1441;48.886;8.728;2022-12-18T12:56:39;35.10;;;17.70;;
2866;SDS011;1441;48.886;8.728;2022-12-18T12:59:15;33.33;;;17.53;;
2866;SDS011;1441;48.886;8.728;2022-12-18T13:04:47;32.10;;;17.27;;
2866;SDS011;1441;48.886;8.728;2022-12-18T13:07:25;30.50;;;16.47;;
2866;SDS011;1441;48.886;8.728;2022-12-18T13:12:54;35.37;;;16.20;;
2866;SDS011;1441;48.886;8.728;2022-12-18T13:15:23;35.03;;;16.10;;
2866;SDS011;1441;48.886;8.728;2022-12-18T13:17:53;35.90;;;16.47;;
2866;SDS011;1441;48.886;8.728;2022-12-18T13:28:15;37.13;;;16.80;;
2866;SDS011;1441;48.886;8.728;2022-12-18T13:30:49;37.00;;;17.40;;
2866;SDS011;1441;48.886;8.728;2022-12-18T13:41:00;35.60;;;15.67;;
2866;SDS011;1441;48.886;8.728;2022-12-18T13:43:32;37.43;;;15.00;;
2866;SDS011;1441;48.886;8.728;2022-12-18T13:48:41;30.83;;;15.10;;
2866;SDS011;1441;48.886;8.728;2022-12-18T13:51:22;30.47;;;14.13;;
2866;SDS011;1441;48.886;8.728;2022-12-18T13:53:53;33.57;;;15.50;;
2866;SDS011;1441;48.886;8.728;2022-12-18T13:56:27;33.33;;;15.70;;
2866;SDS011;1441;48.886;8.728;2022-12-18T13:59:14;29.10;;;14.50;;
2866;SDS011;1441;48.886;8.728;2022-12-18T14:01:46;37.17;;;15.47;;
2866;SDS011;1441;48.886;8.728;2022-12-18T14:04:26;31.07;;;15.67;;
2866;SDS011;1441;48.886;8.728;2022-12-18T14:12:37;30.37;;;14.50;;
2866;SDS011;1441;48.886;8.728;2022-12-18T14:15:34;32.90;;;15.30;;
2866;SDS011;1441;48.886;8.728;2022-12-18T14:20:58;36.10;;;15.87;;
2866;SDS011;1441;48.886;8.728;2022-12-18T14:23:33;31.70;;;15.93;;
2866;SDS011;1441;48.886;8.728;2022-12-18T14:26:19;28.50;;;15.17;;
2866;SDS011;1441;48.886;8.728;2022-12-18T14:28:47;35.20;;;15.37;;
2866;SDS011;1441;48.886;8.728;2022-12-18T14:31:20;37.60;;;15.60;;
2866;SDS011;1441;48.886;8.728;2022-12-18T14:33:47;34.60;;;15.50;;
2866;SDS011;1441;48.886;8.728;2022-12-18T14:36:17;36.57;;;16.20;;
2866;SDS011;1441;48.886;8.728;2022-12-18T14:38:47;35.27;;;15.70;;
2866;SDS011;1441;48.886;8.728;2022-12-18T14:41:20;37.07;;;16.90;;
2866;SDS011;1441;48.886;8.728;2022-12-18T14:43:47;33.20;;;16.50;;
2866;SDS011;1441;48.886;8.728;2022-12-18T14:49:14;35.20;;;16.30;;
2866;SDS011;1441;48.886;8.728;2022-12-18T14:51:57;40.40;;;17.03;;
2866;SDS011;1441;48.886;8.728;2022-12-18T14:54:25;41.50;;;16.27;;
2866;SDS011;1441;48.886;8.728;2022-12-18T14:57:39;41.90;;;19.40;;
2866;SDS011;1441;48.886;8.728;2022-12-18T14:59:47;40.37;;;17.10;;
2866;SDS011;1441;48.886;8.728;2022-12-18T15:02:23;33.07;;;16.10;;
2866;SDS011;1441;48.886;8.728;2022-12-18T15:05:33;33.37;;;16.67;;
2866;SDS011;1441;48.886;8.728;2022-12-18T15:07:54;34.33;;;15.67;;
2866;SDS011;1441;48.886;8.728;2022-12-18T15:10:25;36.60;;;16.37;;
2866;SDS011;1441;48.886;8.728;2022-12-18T15:18:01;35.13;;;17.37;;
2866;SDS011;1441;48.886;8.728;2022-12-18T15:20:39;31.80;;;15.80;;
2866;SDS011;1441;48.886;8.728;2022-12-18T15:23:12;40.50;;;16.60;;
2866;SDS011;1441;48.886;8.728;2022-12-18T15:25:47;38.10;;;16.70;;
2866;SDS011;1441;48.886;8.728;2022-12-18T15:28:21;40.87;;;17.23;;
2866;SDS011;1441;48.886;8.728;2022-12-18T15:31:02;40.80;;;16.07;;
2866;SDS011;1441;48.886;8.728;2022-12-18T15:33:46;37.97;;;17.67;;
2866;SDS011;1441;48.886;8.728;2022-12-18T15:36:28;42.23;;;18.33;;
2866;SDS011;1441;48.886;8.728;2022-12-18T15:39:01;40.47;;;17.93;;
2866;SDS011;1441;48.886;8.728;2022-12-18T15:41:27;38.80;;;17.43;;
2866;SDS011;1441;48.886;8.728;2022-12-18T15:43:53;40.47;;;18.83;;
2866;SDS011;1441;48.886;8.728;2022-12-18T15:46:22;40.80;;;18.00;;
2866;SDS011;1441;48.886;8.728;2022-12-18T15:48:52;36.73;;;17.93;;
2866;SDS011;1441;48.886;8.728;2022-12-18T15:51:24;37.20;;;17.47;;
2866;SDS011;1441;48.886;8.728;2022-12-18T15:53:53;40.30;;;18.57;;
2866;SDS011;1441;48.886;8.728;2022-12-18T15:56:22;35.43;;;17.63;;
2866;SDS011;1441;48.886;8.728;2022-12-18T15:59:13;39.47;;;18.50;;
2866;SDS011;1441;48.886;8.728;2022-12-18T16:01:41;37.07;;;18.23;;
2866;SDS011;1441;48.886;8.728;2022-12-18T16:04:10;40.23;;;18.87;;
2866;SDS011;1441;48.886;8.728;2022-12-18T16:06:38;36.67;;;17.70;;
2866;SDS011;1441;48.886;8.728;2022-12-18T16:09:03;39.97;;;17.90;;
2866;SDS011;1441;48.886;8.728;2022-12-18T16:11:29;38.73;;;17.67;;
2866;SDS011;1441;48.886;8.728;2022-12-18T16:16:40;37.97;;;16.83;;
2866;SDS011;1441;48.886;8.728;2022-12-18T16:19:06;38.00;;;17.70;;
2866;SDS011;1441;48.886;8.728;2022-12-18T16:21:32;37.80;;;19.17;;
2866;SDS011;1441;48.886;8.728;2022-12-18T16:23:58;42.40;;;18.00;;
2866;SDS011;1441;48.886;8.728;2022-12-18T16:26:23;36.17;;;17.70;;
2866;SDS011;1441;48.886;8.728;2022-12-18T16:28:49;34.40;;;16.63;;
2866;SDS011;1441;48.886;8.728;2022-12-18T16:31:14;39.40;;;17.10;;
2866;SDS011;1441;48.886;8.728;2022-12-18T16:33:40;40.97;;;18.60;;
2866;SDS011;1441;48.886;8.728;2022-12-18T16:36:05;42.63;;;21.87;;
2866;SDS011;1441;48.886;8.728;2022-12-18T16:38:32;42.70;;;19.90;;
2866;SDS011;1441;48.886;8.728;2022-12-18T16:40:58;39.70;;;19.73;;
2866;SDS011;1441;48.886;8.728;2022-12-18T16:43:42;39.33;;;19.17;;
2866;SDS011;1441;48.886;8.728;2022-12-18T16:46:08;43.60;;;19.93;;
2866;SDS011;1441;48.886;8.728;2022-12-18T16:48:33;42.23;;;18.87;;
2866;SDS011;1441;48.886;8.728;2022-12-18T16:51:00;42.20;;;19.67;;
2866;SDS011;1441;48.886;8.728;2022-12-18T16:53:27;41.10;;;18.90;;
2866;SDS011;1441;48.886;8.728;2022-12-18T16:55:55;36.77;;;18.60;;
2866;SDS011;1441;48.886;8.728;2022-12-18T16:58:21;35.43;;;17.30;;
2866;SDS011;1441;48.886;8.728;2022-12-18T17:00:47;39.53;;;19.07;;
2866;SDS011;1441;48.886;8.728;2022-12-18T17:03:12;36.87;;;17.30;;
2866;SDS011;1441;48.886;8.728;2022-12-18T17:05:38;34.10;;;16.23;;
2866;SDS011;1441;48.886;8.728;2022-12-18T17:08:03;40.83;;;18.00;;
2866;SDS011;1441;48.886;8.728;2022-12-18T17:10:29;44.07;;;21.50;;
2866;SDS011;1441;48.886;8.728;2022-12-18T17:12:55;51.07;;;24.10;;
2866;SDS011;1441;48.886;8.728;2022-12-18T17:15:20;40.83;;;19.30;;